createdAt,value
2024-02-24T00:00:28.430Z,61.23
2024-02-24T00:01:28.438Z,64.94
2024-02-24T00:02:28.507Z,63.00
2024-02-24T00:03:28.428Z,60.91
2024-02-24T00:04:28.520Z,59.94
2024-02-24T00:05:28.481Z,60.91
2024-02-24T00:06:28.434Z,61.71
2024-02-24T00:07:28.440Z,61.55
2024-02-24T00:08:28.413Z,62.36
2024-02-24T00:09:28.428Z,61.55
2024-02-24T00:10:28.420Z,61.87
2024-02-24T00:11:28.453Z,61.71
2024-02-24T00:12:28.352Z,61.39
2024-02-24T00:13:30.116Z,61.55
2024-02-24T00:14:28.391Z,61.39
2024-02-24T00:15:28.357Z,61.87
2024-02-24T00:16:28.407Z,61.71
2024-02-24T00:17:28.382Z,60.59
2024-02-24T00:18:28.365Z,61.71
2024-02-24T00:19:28.405Z,61.55
2024-02-24T00:20:28.451Z,61.87
2024-02-24T00:21:28.683Z,62.68
2024-02-24T00:22:28.318Z,62.04
2024-02-24T00:23:28.340Z,64.45
2024-02-24T00:24:28.285Z,62.04
2024-02-24T00:25:30.170Z,61.55
2024-02-24T00:26:28.299Z,61.23
2024-02-24T00:27:28.256Z,61.07
2024-02-24T00:28:28.295Z,61.55
2024-02-24T00:29:28.309Z,62.04
2024-02-24T00:30:28.261Z,63.49
2024-02-24T00:31:28.234Z,61.39
2024-02-24T00:32:28.290Z,62.20
2024-02-24T00:33:28.328Z,61.55
2024-02-24T00:34:28.355Z,62.36
2024-02-24T00:35:28.284Z,61.23
2024-02-24T00:36:28.205Z,61.55
2024-02-24T00:37:28.230Z,61.55
2024-02-24T00:38:28.225Z,61.23
2024-02-24T00:39:28.224Z,62.20
2024-02-24T00:40:28.204Z,63.33
2024-02-24T00:41:28.267Z,61.55
2024-02-24T00:42:28.194Z,61.07
2024-02-24T00:43:28.163Z,61.23
2024-02-24T00:44:28.165Z,62.52
2024-02-24T00:45:28.176Z,61.23
2024-02-24T00:46:28.154Z,61.71
2024-02-24T00:47:28.228Z,64.45
2024-02-24T00:48:28.197Z,61.55
2024-02-24T00:49:28.181Z,61.87
2024-02-24T00:50:28.125Z,61.55
2024-02-24T00:51:28.124Z,61.71
2024-02-24T00:52:28.129Z,61.07
2024-02-24T00:53:28.170Z,61.55
2024-02-24T00:54:28.100Z,63.81
2024-02-24T00:55:28.088Z,62.68
2024-02-24T00:56:28.096Z,61.55
2024-02-24T00:57:28.098Z,60.91
2024-02-24T00:58:28.071Z,61.71
2024-02-24T00:59:28.130Z,62.68
2024-02-24T01:00:28.071Z,62.04
2024-02-24T01:01:28.137Z,61.55
2024-02-24T01:02:28.098Z,61.39
2024-02-24T01:03:28.037Z,61.55
2024-02-24T01:04:28.122Z,61.23
2024-02-24T01:05:28.124Z,61.71
2024-02-24T01:06:28.015Z,63.00
2024-02-24T01:07:28.095Z,62.04
2024-02-24T01:08:28.098Z,61.87
2024-02-24T01:09:28.155Z,63.33
2024-02-24T01:10:28.065Z,62.20
2024-02-24T01:11:28.029Z,62.04
2024-02-24T01:12:28.366Z,63.33
2024-02-24T01:13:27.997Z,64.61
2024-02-24T01:14:29.020Z,62.84
2024-02-24T01:15:28.026Z,62.20
2024-02-24T01:16:27.944Z,62.52
2024-02-24T01:17:28.039Z,61.87
2024-02-24T01:18:28.035Z,62.52
2024-02-24T01:19:27.936Z,62.52
2024-02-24T01:20:27.978Z,62.52
2024-02-24T01:21:27.949Z,62.04
2024-02-24T01:22:27.917Z,62.36
2024-02-24T01:23:27.941Z,62.68
2024-02-24T01:24:27.945Z,61.87
2024-02-24T01:25:27.904Z,62.04
2024-02-24T01:26:27.927Z,61.55
2024-02-24T01:27:27.889Z,62.20
2024-02-24T01:28:27.869Z,61.55
2024-02-24T01:29:27.963Z,61.87
2024-02-24T01:30:27.933Z,61.71
2024-02-24T01:31:27.886Z,61.55
2024-02-24T01:32:27.980Z,61.71
2024-02-24T01:33:27.904Z,62.52
2024-02-24T01:34:27.992Z,63.97
2024-02-24T01:35:27.879Z,61.87
2024-02-24T01:36:27.832Z,62.20
2024-02-24T01:37:27.807Z,62.04
2024-02-24T01:38:27.849Z,62.36
2024-02-24T01:39:27.828Z,62.04
2024-02-24T01:40:27.800Z,61.71
2024-02-24T01:41:27.839Z,61.87
2024-02-24T01:42:27.789Z,61.39
2024-02-24T01:43:27.769Z,61.07
2024-02-24T01:44:27.803Z,61.07
2024-02-24T01:45:27.789Z,61.23
2024-02-24T01:46:27.764Z,60.75
2024-02-24T01:47:27.821Z,61.55
2024-02-24T01:48:27.843Z,60.42
2024-02-24T01:49:27.836Z,61.55
2024-02-24T01:50:27.794Z,61.07
2024-02-24T01:51:27.730Z,61.55
2024-02-24T01:52:27.729Z,61.39
2024-02-24T01:53:27.738Z,61.87
2024-02-24T01:54:27.751Z,62.04
2024-02-24T01:55:27.710Z,61.55
2024-02-24T01:56:27.728Z,61.23
2024-02-24T01:57:27.725Z,61.55
2024-02-24T01:58:27.734Z,61.55
2024-02-24T01:59:27.793Z,61.71
2024-02-24T02:00:27.662Z,62.20
2024-02-24T02:01:27.654Z,61.39
2024-02-24T02:02:27.701Z,61.55
2024-02-24T02:03:27.658Z,61.87
2024-02-24T02:04:27.697Z,61.07
2024-02-24T02:05:27.715Z,60.91
2024-02-24T02:06:27.679Z,61.71
2024-02-24T02:07:27.678Z,61.71
2024-02-24T02:08:27.646Z,61.07
2024-02-24T02:09:28.640Z,61.55
2024-02-24T02:10:27.588Z,61.55
2024-02-24T02:11:27.653Z,62.04
2024-02-24T02:12:27.745Z,60.42
2024-02-24T02:13:27.661Z,61.55
2024-02-24T02:14:27.633Z,61.07
2024-02-24T02:15:27.564Z,61.39
2024-02-24T02:16:27.576Z,61.07
2024-02-24T02:17:27.620Z,62.04
2024-02-24T02:18:29.634Z,61.55
2024-02-24T02:19:27.584Z,60.91
2024-02-24T02:20:27.581Z,61.39
2024-02-24T02:21:28.169Z,61.87
2024-02-24T02:22:27.519Z,61.55
2024-02-24T02:23:27.611Z,60.42
2024-02-24T02:24:27.547Z,62.04
2024-02-24T02:25:27.542Z,61.23
2024-02-24T02:26:27.545Z,61.87
2024-02-24T02:27:27.500Z,60.75
2024-02-24T02:28:27.487Z,61.39
2024-02-24T02:29:27.552Z,60.91
2024-02-24T02:30:27.470Z,60.59
2024-02-24T02:31:28.306Z,61.23
2024-02-24T02:32:27.532Z,60.10
2024-02-24T02:33:27.609Z,61.55
2024-02-24T02:34:27.484Z,60.42
2024-02-24T02:35:27.509Z,61.23
2024-02-24T02:36:27.453Z,60.91
2024-02-24T02:37:27.470Z,60.59
2024-02-24T02:38:27.456Z,61.55
2024-02-24T02:39:27.422Z,60.59
2024-02-24T02:40:27.460Z,60.75
2024-02-24T02:41:27.421Z,61.07
2024-02-24T02:42:27.368Z,61.39
2024-02-24T02:43:27.379Z,60.75
2024-02-24T02:44:27.395Z,61.71
2024-02-24T02:45:27.384Z,60.42
2024-02-24T02:46:27.393Z,61.39
2024-02-24T02:47:27.485Z,61.87
2024-02-24T02:48:27.476Z,60.91
2024-02-24T02:49:28.373Z,61.07
2024-02-24T02:50:27.441Z,60.59
2024-02-24T02:51:27.325Z,61.07
2024-02-24T02:52:27.326Z,61.39
2024-02-24T02:53:27.355Z,61.55
2024-02-24T02:54:27.317Z,62.36
2024-02-24T02:55:27.393Z,61.23
2024-02-24T02:56:27.366Z,61.55
2024-02-24T02:57:27.311Z,60.91
2024-02-24T02:58:27.275Z,60.59
2024-02-24T02:59:27.301Z,60.75
2024-02-24T03:00:27.308Z,60.91
2024-02-24T03:01:27.376Z,61.39
2024-02-24T03:02:27.321Z,60.75
2024-02-24T03:03:27.284Z,61.39
2024-02-24T03:04:27.268Z,60.75
2024-02-24T03:05:27.291Z,60.75
2024-02-24T03:06:27.264Z,61.07
2024-02-24T03:07:27.283Z,61.07
2024-02-24T03:08:27.250Z,60.59
2024-02-24T03:09:27.200Z,60.59
2024-02-24T03:10:27.274Z,62.20
2024-02-24T03:11:27.281Z,61.87
2024-02-24T03:12:27.296Z,61.71
2024-02-24T03:13:27.214Z,62.20
2024-02-24T03:14:27.250Z,62.04
2024-02-24T03:15:27.188Z,60.91
2024-02-24T03:16:28.163Z,61.55
2024-02-24T03:17:27.219Z,60.59
2024-02-24T03:18:27.277Z,61.23
2024-02-24T03:19:27.219Z,60.91
2024-02-24T03:20:27.193Z,61.39
2024-02-24T03:21:27.167Z,60.59
2024-02-24T03:22:27.145Z,60.59
2024-02-24T03:23:27.142Z,61.23
2024-02-24T03:24:27.187Z,60.59
2024-02-24T03:25:27.122Z,60.75
2024-02-24T03:26:27.148Z,61.39
2024-02-24T03:27:27.111Z,61.07
2024-02-24T03:28:27.095Z,60.75
2024-02-24T03:29:27.105Z,61.07
2024-02-24T03:30:27.122Z,60.75
2024-02-24T03:31:27.092Z,60.75
2024-02-24T03:32:27.154Z,61.07
2024-02-24T03:33:27.155Z,61.55
2024-02-24T03:34:27.116Z,61.23
2024-02-24T03:35:27.076Z,60.91
2024-02-24T03:36:27.030Z,60.75
2024-02-24T03:37:27.024Z,60.59
2024-02-24T03:38:27.099Z,60.42
2024-02-24T03:39:27.038Z,60.75
2024-02-24T03:40:27.043Z,60.42
2024-02-24T03:41:27.047Z,60.91
2024-02-24T03:42:26.989Z,60.26
2024-02-24T03:43:26.986Z,64.45
2024-02-24T03:44:27.012Z,60.59
2024-02-24T03:45:27.059Z,60.91
2024-02-24T03:46:26.981Z,60.26
2024-02-24T03:47:27.063Z,60.75
2024-02-24T03:48:27.050Z,60.42
2024-02-24T03:49:27.138Z,59.94
2024-02-24T03:50:26.986Z,61.07
2024-02-24T03:51:26.958Z,60.91
2024-02-24T03:52:26.949Z,60.59
2024-02-24T03:53:26.982Z,60.59
2024-02-24T03:54:26.942Z,60.10
2024-02-24T03:55:26.920Z,63.00
2024-02-24T03:56:26.974Z,61.07
2024-02-24T03:57:26.918Z,60.26
2024-02-24T03:58:26.887Z,61.39
2024-02-24T03:59:26.917Z,62.52
2024-02-24T04:00:26.872Z,63.49
2024-02-24T04:01:26.878Z,61.39
2024-02-24T04:02:26.935Z,60.75
2024-02-24T04:03:26.888Z,60.75
2024-02-24T04:04:26.881Z,60.59
2024-02-24T04:05:26.946Z,63.33
2024-02-24T04:06:26.884Z,60.59
2024-02-24T04:07:26.822Z,61.23
2024-02-24T04:08:26.856Z,61.07
2024-02-24T04:09:26.885Z,61.39
2024-02-24T04:10:26.852Z,61.07
2024-02-24T04:11:26.857Z,60.59
2024-02-24T04:12:26.868Z,61.39
2024-02-24T04:13:26.794Z,62.04
2024-02-24T04:14:26.855Z,61.23
2024-02-24T04:15:26.806Z,60.42
2024-02-24T04:16:26.768Z,61.87
2024-02-24T04:17:26.777Z,61.87
2024-02-24T04:18:26.851Z,59.46
2024-02-24T04:19:26.857Z,60.91
2024-02-24T04:20:26.820Z,60.59
2024-02-24T04:21:26.763Z,61.07
2024-02-24T04:22:26.754Z,61.07
2024-02-24T04:23:26.785Z,61.55
2024-02-24T04:24:26.734Z,61.39
2024-02-24T04:25:26.721Z,61.39
2024-02-24T04:26:26.798Z,59.94
2024-02-24T04:27:26.718Z,60.42
2024-02-24T04:28:26.783Z,60.26
2024-02-24T04:29:26.719Z,60.42
2024-02-24T04:30:27.254Z,60.42
2024-02-24T04:31:26.748Z,62.04
2024-02-24T04:32:26.815Z,60.59
2024-02-24T04:33:27.308Z,61.39
2024-02-24T04:34:26.723Z,65.42
2024-02-24T04:35:26.780Z,60.59
2024-02-24T04:36:26.649Z,60.26
2024-02-24T04:37:26.696Z,61.07
2024-02-24T04:38:26.637Z,60.59
2024-02-24T04:39:26.677Z,60.91
2024-02-24T04:40:26.659Z,66.39
2024-02-24T04:41:26.724Z,62.20
2024-02-24T04:42:26.609Z,63.16
2024-02-24T04:43:26.612Z,62.04
2024-02-24T04:44:26.606Z,61.07
2024-02-24T04:45:26.619Z,60.42
2024-02-24T04:46:26.578Z,62.52
2024-02-24T04:47:26.669Z,60.75
2024-02-24T04:48:26.661Z,60.10
2024-02-24T04:49:26.576Z,60.26
2024-02-24T04:50:26.704Z,60.91
2024-02-24T04:51:26.552Z,60.75
2024-02-24T04:52:26.537Z,60.59
2024-02-24T04:53:26.562Z,61.07
2024-02-24T04:54:26.519Z,61.87
2024-02-24T04:55:26.565Z,61.07
2024-02-24T04:56:26.552Z,60.10
2024-02-24T04:57:26.509Z,60.10
2024-02-24T04:58:26.557Z,60.10
2024-02-24T04:59:26.605Z,59.30
2024-02-24T05:00:26.514Z,60.42
2024-02-24T05:01:26.533Z,60.75
2024-02-24T05:02:26.557Z,60.42
2024-02-24T05:03:26.539Z,60.26
2024-02-24T05:04:26.575Z,59.94
2024-02-24T05:05:26.490Z,60.59
2024-02-24T05:06:26.547Z,60.91
2024-02-24T05:07:26.468Z,59.94
2024-02-24T05:08:26.510Z,61.07
2024-02-24T05:09:26.531Z,60.59
2024-02-24T05:10:26.477Z,60.59
2024-02-24T05:11:26.529Z,60.26
2024-02-24T05:12:26.992Z,59.94
2024-02-24T05:13:26.416Z,60.75
2024-02-24T05:14:26.401Z,62.04
2024-02-24T05:15:26.411Z,60.26
2024-02-24T05:16:26.402Z,60.26
2024-02-24T05:17:26.396Z,59.30
2024-02-24T05:18:26.524Z,60.10
2024-02-24T05:19:26.410Z,61.23
2024-02-24T05:20:26.454Z,60.26
2024-02-24T05:21:26.420Z,59.62
2024-02-24T05:22:26.353Z,61.07
2024-02-24T05:23:26.397Z,60.91
2024-02-24T05:24:26.370Z,61.55
2024-02-24T05:25:26.341Z,61.87
2024-02-24T05:26:26.371Z,60.91
2024-02-24T05:27:26.377Z,61.55
2024-02-24T05:28:26.296Z,59.78
2024-02-24T05:29:26.353Z,60.26
2024-02-24T05:30:26.313Z,60.59
2024-02-24T05:31:26.285Z,60.42
2024-02-24T05:32:26.425Z,61.07
2024-02-24T05:33:26.512Z,60.91
2024-02-24T05:34:26.444Z,59.94
2024-02-24T05:35:26.283Z,63.97
2024-02-24T05:36:26.271Z,60.10
2024-02-24T05:37:26.283Z,60.75
2024-02-24T05:38:26.290Z,62.84
2024-02-24T05:39:26.272Z,62.04
2024-02-24T05:40:26.253Z,61.23
2024-02-24T05:41:26.259Z,61.23
2024-02-24T05:42:26.210Z,63.33
2024-02-24T05:43:26.222Z,62.04
2024-02-24T05:44:26.300Z,61.07
2024-02-24T05:45:26.198Z,64.61
2024-02-24T05:46:26.242Z,62.04
2024-02-24T05:47:26.290Z,62.36
2024-02-24T05:48:26.246Z,65.58
2024-02-24T05:49:26.253Z,65.58
2024-02-24T05:50:26.226Z,65.26
2024-02-24T05:51:26.249Z,61.39
2024-02-24T05:52:26.172Z,61.87
2024-02-24T05:53:26.175Z,63.97
2024-02-24T05:54:26.186Z,60.42
2024-02-24T05:55:26.147Z,64.13
2024-02-24T05:56:26.187Z,62.20
2024-02-24T05:57:26.147Z,59.94
2024-02-24T05:58:27.753Z,61.39
2024-02-24T05:59:26.187Z,60.59
2024-02-24T06:00:26.161Z,60.59
2024-02-24T06:01:26.095Z,61.07
2024-02-24T06:02:26.166Z,60.59
2024-02-24T06:03:26.188Z,62.20
2024-02-24T06:04:26.094Z,60.59
2024-02-24T06:05:26.130Z,60.59
2024-02-24T06:06:26.186Z,64.13
2024-02-24T06:07:26.108Z,63.49
2024-02-24T06:08:26.128Z,61.39
2024-02-24T06:09:26.081Z,60.59
2024-02-24T06:10:26.058Z,61.55
2024-02-24T06:11:26.143Z,63.81
2024-02-24T06:12:26.060Z,63.97
2024-02-24T06:13:26.065Z,62.68
2024-02-24T06:14:26.041Z,63.65
2024-02-24T06:15:26.073Z,61.71
2024-02-24T06:16:26.035Z,61.39
2024-02-24T06:17:26.048Z,61.87
2024-02-24T06:18:26.153Z,61.07
2024-02-24T06:19:26.009Z,60.59
2024-02-24T06:20:26.036Z,62.04
2024-02-24T06:21:26.069Z,62.68
2024-02-24T06:22:26.030Z,60.59
2024-02-24T06:23:26.068Z,61.39
2024-02-24T06:24:26.011Z,62.68
2024-02-24T06:25:25.991Z,62.52
2024-02-24T06:26:26.070Z,62.20
2024-02-24T06:27:25.962Z,62.36
2024-02-24T06:28:26.025Z,65.74
2024-02-24T06:29:26.019Z,65.42
2024-02-24T06:30:25.945Z,66.39
2024-02-24T06:31:25.995Z,66.06
2024-02-24T06:32:26.017Z,63.00
2024-02-24T06:33:26.077Z,65.10
2024-02-24T06:34:25.948Z,60.42
2024-02-24T06:35:26.929Z,65.90
2024-02-24T06:36:25.884Z,66.39
2024-02-24T06:37:25.921Z,67.03
2024-02-24T06:38:25.957Z,64.45
2024-02-24T06:39:25.954Z,63.81
2024-02-24T06:40:33.193Z,62.84
2024-02-24T06:41:28.880Z,71.54
2024-02-24T06:42:25.874Z,68.48
2024-02-24T06:43:25.861Z,64.45
2024-02-24T06:44:25.889Z,64.45
2024-02-24T06:45:25.923Z,61.87
2024-02-24T06:46:25.820Z,63.97
2024-02-24T06:47:29.383Z,60.10
2024-02-24T06:48:25.932Z,60.26
2024-02-24T06:49:25.900Z,61.55
2024-02-24T06:50:25.894Z,60.91
2024-02-24T06:51:25.816Z,61.23
2024-02-24T06:52:25.858Z,64.13
2024-02-24T06:53:25.823Z,61.55
2024-02-24T06:54:25.803Z,60.59
2024-02-24T06:55:25.799Z,63.97
2024-02-24T06:56:25.792Z,63.81
2024-02-24T06:57:25.776Z,60.91
2024-02-24T06:58:25.814Z,61.71
2024-02-24T06:59:25.835Z,67.19
2024-02-24T07:00:25.780Z,61.07
2024-02-24T07:01:25.777Z,64.78
2024-02-24T07:02:25.819Z,64.61
2024-02-24T07:03:25.873Z,69.13
2024-02-24T07:04:25.715Z,63.97
2024-02-24T07:05:25.845Z,64.78
2024-02-24T07:06:27.272Z,61.55
2024-02-24T07:07:25.738Z,65.26
2024-02-24T07:08:25.739Z,64.13
2024-02-24T07:09:25.725Z,63.33
2024-02-24T07:10:25.730Z,67.19
2024-02-24T07:11:25.749Z,63.33
2024-02-24T07:12:25.729Z,65.90
2024-02-24T07:13:25.702Z,64.94
2024-02-24T07:14:25.704Z,67.84
2024-02-24T07:15:26.731Z,59.94
2024-02-24T07:16:25.658Z,62.84
2024-02-24T07:17:25.713Z,60.42
2024-02-24T07:18:25.808Z,67.84
2024-02-24T07:19:25.678Z,63.65
2024-02-24T07:20:25.676Z,65.90
2024-02-24T07:21:25.619Z,60.26
2024-02-24T07:22:25.637Z,61.07
2024-02-24T07:23:25.605Z,64.94
2024-02-24T07:24:25.605Z,64.13
2024-02-24T07:25:25.627Z,63.16
2024-02-24T07:26:25.666Z,62.04
2024-02-24T07:27:25.627Z,66.23
2024-02-24T07:28:25.589Z,58.81
2024-02-24T07:29:25.609Z,66.71
2024-02-24T07:30:25.599Z,70.09
2024-02-24T07:31:25.551Z,66.06
2024-02-24T07:32:25.588Z,60.42
2024-02-24T07:33:25.669Z,60.42
2024-02-24T07:34:25.664Z,59.46
2024-02-24T07:35:25.613Z,60.26
2024-02-24T07:36:25.559Z,67.51
2024-02-24T07:37:25.536Z,63.65
2024-02-24T07:38:25.553Z,68.80
2024-02-24T07:39:25.533Z,67.51
2024-02-24T07:40:25.515Z,68.00
2024-02-24T07:41:25.516Z,62.36
2024-02-24T07:42:25.485Z,64.78
2024-02-24T07:43:25.515Z,64.78
2024-02-24T07:44:25.552Z,66.39
2024-02-24T07:45:25.475Z,59.94
2024-02-24T07:46:26.233Z,59.62
2024-02-24T07:47:25.542Z,66.87
2024-02-24T07:48:25.516Z,67.03
2024-02-24T07:49:25.510Z,72.51
2024-02-24T07:50:25.600Z,70.90
2024-02-24T07:51:25.477Z,69.77
2024-02-24T07:52:25.438Z,59.94
2024-02-24T07:53:25.445Z,68.64
2024-02-24T07:54:25.415Z,70.58
2024-02-24T07:55:25.432Z,66.39
2024-02-24T07:56:25.481Z,67.19
2024-02-24T07:57:25.530Z,68.32
2024-02-24T07:58:25.391Z,62.20
2024-02-24T07:59:25.517Z,69.77
2024-02-24T08:00:25.388Z,61.07
2024-02-24T08:01:26.403Z,66.55
2024-02-24T08:02:26.500Z,58.81
2024-02-24T08:03:26.214Z,67.03
2024-02-24T08:04:25.419Z,60.91
2024-02-24T08:05:25.411Z,67.03
2024-02-24T08:06:25.461Z,68.48
2024-02-24T08:07:25.448Z,69.61
2024-02-24T08:08:25.400Z,65.90
2024-02-24T08:09:25.454Z,69.13
2024-02-24T08:10:25.327Z,64.61
2024-02-24T08:11:25.534Z,68.96
2024-02-24T08:12:25.525Z,68.16
2024-02-24T08:13:25.299Z,65.90
2024-02-24T08:14:25.357Z,67.19
2024-02-24T08:15:25.295Z,60.42
2024-02-24T08:16:25.349Z,66.71
2024-02-24T08:17:25.378Z,68.32
2024-02-24T08:18:26.410Z,63.65
2024-02-24T08:19:25.332Z,65.26
2024-02-24T08:20:25.374Z,59.46
2024-02-24T08:21:25.285Z,58.49
2024-02-24T08:22:25.261Z,67.84
2024-02-24T08:23:26.260Z,63.97
2024-02-24T08:24:25.253Z,65.90
2024-02-24T08:25:25.231Z,67.35
2024-02-24T08:26:25.282Z,68.32
2024-02-24T08:27:25.218Z,69.45
2024-02-24T08:28:25.550Z,63.97
2024-02-24T08:29:25.252Z,72.19
2024-02-24T08:30:26.256Z,64.94
2024-02-24T08:31:25.201Z,62.04
2024-02-24T08:32:25.288Z,61.55
2024-02-24T08:33:26.803Z,61.71
2024-02-24T08:34:25.183Z,66.87
2024-02-24T08:35:25.256Z,65.58
2024-02-24T08:36:25.293Z,66.39
2024-02-24T08:37:25.521Z,64.61
2024-02-24T08:38:25.206Z,68.32
2024-02-24T08:39:25.180Z,70.09
2024-02-24T08:40:26.666Z,63.33
2024-02-24T08:41:25.157Z,70.74
2024-02-24T08:42:25.173Z,62.68
2024-02-24T08:43:25.195Z,67.68
2024-02-24T08:44:25.189Z,69.77
2024-02-24T08:45:25.213Z,68.80
2024-02-24T08:46:25.507Z,70.58
2024-02-24T08:47:25.195Z,68.96
2024-02-24T08:48:25.153Z,67.19
2024-02-24T08:49:25.160Z,67.84
2024-02-24T08:50:25.152Z,65.10
2024-02-24T08:51:25.070Z,69.61
2024-02-24T08:52:32.807Z,72.03
2024-02-24T08:53:27.080Z,67.35
2024-02-24T08:54:25.067Z,65.74
2024-02-24T08:55:25.068Z,62.68
2024-02-24T08:56:25.102Z,64.78
2024-02-24T08:57:25.049Z,69.93
2024-02-24T08:58:25.057Z,71.54
2024-02-24T08:59:25.070Z,69.13
2024-02-24T09:00:25.068Z,61.87
2024-02-24T09:01:25.164Z,71.54
2024-02-24T09:02:25.046Z,70.58
2024-02-24T09:03:25.398Z,67.68
2024-02-24T09:04:26.002Z,64.61
2024-02-24T09:05:25.105Z,63.49
2024-02-24T09:06:25.180Z,68.48
2024-02-24T09:07:25.096Z,69.93
2024-02-24T09:08:25.004Z,69.61
2024-02-24T09:09:24.985Z,66.71
2024-02-24T09:10:25.598Z,70.25
2024-02-24T09:11:25.068Z,59.62
2024-02-24T09:12:25.050Z,67.84
2024-02-24T09:13:25.961Z,71.22
2024-02-24T09:14:25.023Z,66.87
2024-02-24T09:15:24.932Z,72.67
2024-02-24T09:16:24.935Z,73.48
2024-02-24T09:17:25.003Z,72.19
2024-02-24T09:18:25.067Z,65.58
2024-02-24T09:19:24.938Z,62.84
2024-02-24T09:20:24.983Z,70.42
2024-02-24T09:21:24.919Z,70.90
2024-02-24T09:22:24.939Z,62.20
2024-02-24T09:23:24.988Z,66.39
2024-02-24T09:24:24.903Z,59.78
2024-02-24T09:25:24.877Z,71.22
2024-02-24T09:26:24.906Z,67.03
2024-02-24T09:27:24.971Z,57.85
2024-02-24T09:28:24.908Z,61.71
2024-02-24T09:29:24.961Z,68.64
2024-02-24T09:30:24.892Z,68.64
2024-02-24T09:31:24.865Z,74.12
2024-02-24T09:32:24.943Z,71.22
2024-02-24T09:33:24.994Z,70.25
2024-02-24T09:34:24.941Z,69.61
2024-02-24T09:35:24.823Z,67.19
2024-02-24T09:36:24.802Z,68.80
2024-02-24T09:37:24.941Z,70.42
2024-02-24T09:38:24.840Z,67.35
2024-02-24T09:39:24.804Z,72.67
2024-02-24T09:40:24.784Z,65.42
2024-02-24T09:41:24.824Z,70.74
2024-02-24T09:42:24.821Z,70.09
2024-02-24T09:43:24.770Z,65.74
2024-02-24T09:44:26.523Z,69.13
2024-02-24T09:45:24.810Z,69.45
2024-02-24T09:46:24.757Z,72.83
2024-02-24T09:47:24.794Z,71.38
2024-02-24T09:48:24.962Z,67.68
2024-02-24T09:49:24.751Z,66.71
2024-02-24T09:50:25.783Z,72.67
2024-02-24T09:51:24.716Z,65.74
2024-02-24T09:52:24.792Z,69.29
2024-02-24T09:53:24.775Z,69.61
2024-02-24T09:54:24.693Z,71.54
2024-02-24T09:55:24.747Z,68.00
2024-02-24T09:56:24.783Z,69.93
2024-02-24T09:57:24.667Z,71.87
2024-02-24T09:58:24.694Z,71.38
2024-02-24T09:59:24.723Z,65.74
2024-02-24T10:00:24.669Z,61.07
2024-02-24T10:01:24.726Z,65.10
2024-02-24T10:02:24.695Z,71.54
2024-02-24T10:03:24.689Z,70.42
2024-02-24T10:04:24.644Z,64.45
2024-02-24T10:05:24.768Z,58.81
2024-02-24T10:06:24.764Z,70.58
2024-02-24T10:07:25.279Z,68.96
2024-02-24T10:08:24.636Z,71.70
2024-02-24T10:09:24.594Z,73.15
2024-02-24T10:10:24.619Z,69.29
2024-02-24T10:11:24.691Z,71.06
2024-02-24T10:12:24.606Z,72.67
2024-02-24T10:13:24.578Z,70.74
2024-02-24T10:14:24.635Z,70.90
2024-02-24T10:15:24.621Z,71.70
2024-02-24T10:16:24.591Z,70.58
2024-02-24T10:17:24.607Z,64.61
2024-02-24T10:18:24.625Z,73.15
2024-02-24T10:19:26.409Z,74.44
2024-02-24T10:20:25.579Z,73.15
2024-02-24T10:21:24.735Z,68.64
2024-02-24T10:22:26.539Z,72.35
2024-02-24T10:23:24.588Z,66.87
2024-02-24T10:24:24.513Z,70.42
2024-02-24T10:25:24.638Z,67.35
2024-02-24T10:26:24.544Z,69.61
2024-02-24T10:27:24.500Z,70.90
2024-02-24T10:28:24.490Z,69.93
2024-02-24T10:29:24.527Z,71.70
2024-02-24T10:30:26.203Z,71.06
2024-02-24T10:31:24.518Z,72.83
2024-02-24T10:32:24.515Z,74.12
2024-02-24T10:33:24.765Z,70.58
2024-02-24T10:34:24.487Z,71.06
2024-02-24T10:35:24.544Z,70.90
2024-02-24T10:36:24.494Z,72.03
2024-02-24T10:37:24.442Z,71.06
2024-02-24T10:38:34.418Z,72.83
2024-02-24T10:39:25.496Z,68.00
2024-02-24T10:40:25.268Z,69.45
2024-02-24T10:41:29.252Z,68.00
2024-02-24T10:42:24.412Z,70.42
2024-02-24T10:43:25.216Z,70.58
2024-02-24T10:44:24.422Z,69.13
2024-02-24T10:45:24.388Z,70.42
2024-02-24T10:46:24.395Z,68.48
2024-02-24T10:47:24.384Z,74.60
2024-02-24T10:48:24.477Z,71.54
2024-02-24T10:49:24.558Z,70.09
2024-02-24T10:50:24.376Z,68.64
2024-02-24T10:51:24.382Z,72.83
2024-02-24T10:52:24.346Z,72.99
2024-02-24T10:53:24.530Z,71.70
2024-02-24T10:54:24.351Z,70.25
2024-02-24T10:55:24.344Z,68.00
2024-02-24T10:56:24.362Z,72.03
2024-02-24T10:57:24.319Z,69.61
2024-02-24T10:58:24.318Z,65.90
2024-02-24T10:59:24.371Z,69.93
2024-02-24T11:00:24.348Z,71.70
2024-02-24T11:01:24.334Z,71.54
2024-02-24T11:02:24.366Z,71.70
2024-02-24T11:03:24.269Z,70.74
2024-02-24T11:04:24.280Z,71.54
2024-02-24T11:05:24.289Z,72.19
2024-02-24T11:06:24.301Z,69.93
2024-02-24T11:07:24.497Z,70.42
2024-02-24T11:08:24.257Z,71.22
2024-02-24T11:09:24.249Z,66.87
2024-02-24T11:10:24.322Z,64.29
2024-02-24T11:11:24.272Z,70.58
2024-02-24T11:12:24.648Z,68.64
2024-02-24T11:13:24.244Z,68.32
2024-02-24T11:14:24.242Z,72.03
2024-02-24T11:15:24.201Z,68.96
2024-02-24T11:16:24.209Z,72.03
2024-02-24T11:17:24.208Z,72.03
2024-02-24T11:18:24.284Z,72.51
2024-02-24T11:19:24.212Z,70.25
2024-02-24T11:20:24.207Z,67.35
2024-02-24T11:21:24.153Z,65.90
2024-02-24T11:22:24.236Z,66.06
2024-02-24T11:23:24.273Z,74.12
2024-02-24T11:24:24.143Z,69.93
2024-02-24T11:25:24.182Z,72.35
2024-02-24T11:26:24.193Z,71.54
2024-02-24T11:27:24.164Z,70.42
2024-02-24T11:28:24.137Z,68.48
2024-02-24T11:29:24.825Z,67.35
2024-02-24T11:30:24.164Z,69.45
2024-02-24T11:31:26.040Z,71.54
2024-02-24T11:32:25.224Z,65.90
2024-02-24T11:33:24.350Z,68.96
2024-02-24T11:34:24.192Z,71.22
2024-02-24T11:35:25.540Z,66.55
2024-02-24T11:36:24.104Z,71.54
2024-02-24T11:37:24.100Z,67.84
2024-02-24T11:38:24.160Z,66.87
2024-02-24T11:39:25.847Z,69.93
2024-02-24T11:40:24.051Z,69.93
2024-02-24T11:41:24.090Z,70.90
2024-02-24T11:42:24.029Z,73.32
2024-02-24T11:43:24.032Z,68.16
2024-02-24T11:44:27.798Z,72.03
2024-02-24T11:45:24.036Z,67.19
2024-02-24T11:46:24.022Z,70.74
2024-02-24T11:47:27.884Z,69.45
2024-02-24T11:48:24.269Z,71.54
2024-02-24T11:49:24.040Z,69.13
2024-02-24T11:50:24.073Z,70.90
2024-02-24T11:51:24.023Z,70.74
2024-02-24T11:52:23.985Z,70.74
2024-02-24T11:53:23.996Z,70.90
2024-02-24T11:54:23.993Z,68.64
2024-02-24T11:55:24.079Z,71.06
2024-02-24T11:56:24.008Z,65.90
2024-02-24T11:57:25.006Z,66.39
2024-02-24T11:58:24.029Z,64.61
2024-02-24T11:59:23.943Z,72.03
2024-02-24T12:00:23.975Z,72.99
2024-02-24T12:01:24.014Z,71.22
2024-02-24T12:02:23.963Z,71.38
2024-02-24T12:03:25.538Z,71.87
2024-02-24T12:04:24.939Z,62.36
2024-02-24T12:05:23.981Z,63.00
2024-02-24T12:06:23.971Z,73.15
2024-02-24T12:07:23.966Z,66.87
2024-02-24T12:08:23.909Z,72.03
2024-02-24T12:09:23.889Z,65.74
2024-02-24T12:10:23.883Z,66.39
2024-02-24T12:11:23.942Z,71.22
2024-02-24T12:12:23.960Z,68.64
2024-02-24T12:13:23.841Z,69.61
2024-02-24T12:14:23.864Z,68.48
2024-02-24T12:15:23.816Z,67.84
2024-02-24T12:16:23.845Z,70.74
2024-02-24T12:17:23.932Z,68.96
2024-02-24T12:18:24.262Z,71.06
2024-02-24T12:19:23.860Z,69.93
2024-02-24T12:20:23.814Z,69.77
2024-02-24T12:21:23.801Z,68.80
2024-02-24T12:22:23.778Z,71.22
2024-02-24T12:23:23.813Z,69.77
2024-02-24T12:24:23.776Z,68.80
2024-02-24T12:25:23.888Z,67.19
2024-02-24T12:26:23.794Z,71.06
2024-02-24T12:27:23.763Z,65.42
2024-02-24T12:28:23.782Z,69.29
2024-02-24T12:29:23.779Z,70.09
2024-02-24T12:30:23.810Z,67.03
2024-02-24T12:31:23.761Z,69.29
2024-02-24T12:32:23.747Z,69.45
2024-02-24T12:33:23.865Z,66.23
2024-02-24T12:34:23.876Z,68.96
2024-02-24T12:35:23.931Z,65.74
2024-02-24T12:36:23.761Z,69.61
2024-02-24T12:37:23.714Z,64.78
2024-02-24T12:38:23.729Z,70.58
2024-02-24T12:39:23.700Z,67.35
2024-02-24T12:40:23.701Z,63.49
2024-02-24T12:41:23.670Z,67.03
2024-02-24T12:42:23.662Z,70.25
2024-02-24T12:43:23.651Z,65.26
2024-02-24T12:44:23.725Z,68.48
2024-02-24T12:45:23.644Z,73.32
2024-02-24T12:46:23.805Z,65.26
2024-02-24T12:47:23.712Z,61.23
2024-02-24T12:48:23.825Z,67.51
2024-02-24T12:49:23.710Z,68.64
2024-02-24T12:50:23.683Z,67.84
2024-02-24T12:51:23.665Z,59.14
2024-02-24T12:52:23.623Z,67.84